sensor_id;sensor_type;location;lat;lon;timestamp;P1;durP1;ratioP1;P2;durP2;ratioP2
22648;SDS011;11491;41.942;24.220;2023-04-15T00:02:12;6.50;;;3.85;;
22648;SDS011;11491;41.942;24.220;2023-04-15T00:04:45;8.73;;;3.50;;
22648;SDS011;11491;41.942;24.220;2023-04-15T00:07:14;10.25;;;3.25;;
22648;SDS011;11491;41.942;24.220;2023-04-15T00:09:42;8.07;;;2.78;;
22648;SDS011;11491;41.942;24.220;2023-04-15T00:12:13;7.40;;;3.30;;
22648;SDS011;11491;41.942;24.220;2023-04-15T00:14:46;7.68;;;2.83;;
22648;SDS011;11491;41.942;24.220;2023-04-15T00:19:50;6.13;;;2.60;;
22648;SDS011;11491;41.942;24.220;2023-04-15T00:22:46;6.70;;;2.83;;
22648;SDS011;11491;41.942;24.220;2023-04-15T00:25:30;5.68;;;2.90;;
22648;SDS011;11491;41.942;24.220;2023-04-15T00:33:29;4.70;;;2.67;;
22648;SDS011;11491;41.942;24.220;2023-04-15T00:35:56;8.00;;;2.67;;
22648;SDS011;11491;41.942;24.220;2023-04-15T00:38:27;6.25;;;3.08;;
22648;SDS011;11491;41.942;24.220;2023-04-15T00:41:11;6.00;;;3.10;;
22648;SDS011;11491;41.942;24.220;2023-04-15T00:43:38;8.40;;;3.17;;
22648;SDS011;11491;41.942;24.220;2023-04-15T00:46:06;6.18;;;3.00;;
22648;SDS011;11491;41.942;24.220;2023-04-15T00:51:53;7.32;;;2.70;;
22648;SDS011;11491;41.942;24.220;2023-04-15T00:54:23;5.63;;;3.20;;
22648;SDS011;11491;41.942;24.220;2023-04-15T00:56:57;8.73;;;3.40;;
22648;SDS011;11491;41.942;24.220;2023-04-15T00:59:30;8.70;;;3.92;;
22648;SDS011;11491;41.942;24.220;2023-04-15T01:05:07;6.93;;;3.42;;
22648;SDS011;11491;41.942;24.220;2023-04-15T01:07:42;10.60;;;3.92;;
22648;SDS011;11491;41.942;24.220;2023-04-15T01:10:16;10.85;;;3.85;;
22648;SDS011;11491;41.942;24.220;2023-04-15T01:12:50;8.55;;;3.83;;
22648;SDS011;11491;41.942;24.220;2023-04-15T01:17:54;7.15;;;4.22;;
22648;SDS011;11491;41.942;24.220;2023-04-15T01:21:17;7.10;;;3.22;;
22648;SDS011;11491;41.942;24.220;2023-04-15T01:23:47;7.53;;;3.92;;
22648;SDS011;11491;41.942;24.220;2023-04-15T01:26:17;16.58;;;7.93;;
22648;SDS011;11491;41.942;24.220;2023-04-15T01:28:47;12.02;;;6.75;;
22648;SDS011;11491;41.942;24.220;2023-04-15T01:31:14;5.90;;;3.30;;
22648;SDS011;11491;41.942;24.220;2023-04-15T01:33:42;7.07;;;3.53;;
22648;SDS011;11491;41.942;24.220;2023-04-15T01:36:09;7.45;;;4.05;;
22648;SDS011;11491;41.942;24.220;2023-04-15T01:38:36;7.53;;;3.40;;
22648;SDS011;11491;41.942;24.220;2023-04-15T01:41:04;7.32;;;3.58;;
22648;SDS011;11491;41.942;24.220;2023-04-15T01:46:21;8.57;;;3.75;;
22648;SDS011;11491;41.942;24.220;2023-04-15T01:48:48;10.10;;;5.07;;
22648;SDS011;11491;41.942;24.220;2023-04-15T01:51:15;7.43;;;4.20;;
22648;SDS011;11491;41.942;24.220;2023-04-15T01:53:42;10.35;;;5.93;;
22648;SDS011;11491;41.942;24.220;2023-04-15T01:56:09;7.20;;;3.88;;
22648;SDS011;11491;41.942;24.220;2023-04-15T01:58:37;8.13;;;3.13;;
22648;SDS011;11491;41.942;24.220;2023-04-15T02:03:52;8.15;;;2.95;;
22648;SDS011;11491;41.942;24.220;2023-04-15T02:06:18;5.80;;;4.40;;
22648;SDS011;11491;41.942;24.220;2023-04-15T02:08:47;9.00;;;3.90;;
22648;SDS011;11491;41.942;24.220;2023-04-15T02:11:14;8.45;;;4.45;;
22648;SDS011;11491;41.942;24.220;2023-04-15T02:13:54;9.45;;;4.45;;
22648;SDS011;11491;41.942;24.220;2023-04-15T02:16:31;6.53;;;3.42;;
22648;SDS011;11491;41.942;24.220;2023-04-15T02:19:15;6.18;;;3.50;;
22648;SDS011;11491;41.942;24.220;2023-04-15T02:21:57;10.38;;;3.88;;
22648;SDS011;11491;41.942;24.220;2023-04-15T02:24:24;6.70;;;4.20;;
22648;SDS011;11491;41.942;24.220;2023-04-15T02:26:51;9.48;;;4.07;;
22648;SDS011;11491;41.942;24.220;2023-04-15T02:29:22;6.18;;;3.38;;
22648;SDS011;11491;41.942;24.220;2023-04-15T02:31:50;8.00;;;3.70;;
22648;SDS011;11491;41.942;24.220;2023-04-15T02:34:17;6.03;;;3.17;;
22648;SDS011;11491;41.942;24.220;2023-04-15T02:36:44;8.57;;;3.90;;
22648;SDS011;11491;41.942;24.220;2023-04-15T02:39:13;5.38;;;3.80;;
22648;SDS011;11491;41.942;24.220;2023-04-15T02:41:42;6.75;;;3.45;;
22648;SDS011;11491;41.942;24.220;2023-04-15T02:44:17;6.38;;;3.67;;
22648;SDS011;11491;41.942;24.220;2023-04-15T02:55:32;5.82;;;4.40;;
22648;SDS011;11491;41.942;24.220;2023-04-15T02:58:00;5.47;;;3.90;;
22648;SDS011;11491;41.942;24.220;2023-04-15T03:00:28;8.73;;;3.65;;
22648;SDS011;11491;41.942;24.220;2023-04-15T03:02:56;8.45;;;5.03;;
22648;SDS011;11491;41.942;24.220;2023-04-15T03:05:26;10.88;;;6.63;;
22648;SDS011;11491;41.942;24.220;2023-04-15T03:07:54;9.00;;;7.43;;
22648;SDS011;11491;41.942;24.220;2023-04-15T03:10:22;11.98;;;8.38;;
22648;SDS011;11491;41.942;24.220;2023-04-15T03:12:50;11.80;;;7.05;;
22648;SDS011;11491;41.942;24.220;2023-04-15T03:15:20;10.30;;;7.90;;
22648;SDS011;11491;41.942;24.220;2023-04-15T03:17:48;9.57;;;6.78;;
22648;SDS011;11491;41.942;24.220;2023-04-15T03:20:15;7.88;;;5.78;;
22648;SDS011;11491;41.942;24.220;2023-04-15T03:22:46;9.13;;;5.63;;
22648;SDS011;11491;41.942;24.220;2023-04-15T03:25:18;8.80;;;6.03;;
22648;SDS011;11491;41.942;24.220;2023-04-15T03:27:46;10.57;;;6.45;;
22648;SDS011;11491;41.942;24.220;2023-04-15T03:30:15;11.75;;;9.90;;
22648;SDS011;11491;41.942;24.220;2023-04-15T03:32:43;17.88;;;13.45;;
22648;SDS011;11491;41.942;24.220;2023-04-15T03:35:10;25.80;;;18.17;;
22648;SDS011;11491;41.942;24.220;2023-04-15T03:37:38;23.23;;;20.52;;
22648;SDS011;11491;41.942;24.220;2023-04-15T03:40:07;35.95;;;26.52;;
22648;SDS011;11491;41.942;24.220;2023-04-15T03:42:49;34.33;;;23.63;;
22648;SDS011;11491;41.942;24.220;2023-04-15T03:45:18;25.63;;;19.40;;
22648;SDS011;11491;41.942;24.220;2023-04-15T03:47:51;11.75;;;8.10;;
22648;SDS011;11491;41.942;24.220;2023-04-15T03:50:21;16.65;;;10.60;;
22648;SDS011;11491;41.942;24.220;2023-04-15T03:55:39;15.55;;;9.15;;
22648;SDS011;11491;41.942;24.220;2023-04-15T03:58:23;12.32;;;8.82;;
22648;SDS011;11491;41.942;24.220;2023-04-15T04:01:17;14.38;;;9.05;;
22648;SDS011;11491;41.942;24.220;2023-04-15T04:04:09;18.48;;;9.73;;
22648;SDS011;11491;41.942;24.220;2023-04-15T04:06:50;17.98;;;12.35;;
22648;SDS011;11491;41.942;24.220;2023-04-15T04:12:16;27.13;;;16.52;;
22648;SDS011;11491;41.942;24.220;2023-04-15T04:14:43;27.20;;;16.48;;
22648;SDS011;11491;41.942;24.220;2023-04-15T04:17:31;21.98;;;14.82;;
22648;SDS011;11491;41.942;24.220;2023-04-15T04:20:34;21.20;;;14.32;;
22648;SDS011;11491;41.942;24.220;2023-04-15T04:23:17;25.27;;;17.67;;
22648;SDS011;11491;41.942;24.220;2023-04-15T04:25:44;80.72;;;40.65;;
22648;SDS011;11491;41.942;24.220;2023-04-15T04:28:20;67.28;;;41.75;;
22648;SDS011;11491;41.942;24.220;2023-04-15T04:34:08;61.25;;;38.75;;
22648;SDS011;11491;41.942;24.220;2023-04-15T04:36:41;61.35;;;41.42;;
22648;SDS011;11491;41.942;24.220;2023-04-15T04:39:30;87.07;;;63.85;;
22648;SDS011;11491;41.942;24.220;2023-04-15T04:42:24;74.68;;;55.38;;
22648;SDS011;11491;41.942;24.220;2023-04-15T04:44:57;67.05;;;48.30;;
22648;SDS011;11491;41.942;24.220;2023-04-15T04:47:36;107.65;;;66.13;;
22648;SDS011;11491;41.942;24.220;2023-04-15T04:50:21;128.95;;;76.68;;
22648;SDS011;11491;41.942;24.220;2023-04-15T04:55:41;51.25;;;32.55;;
22648;SDS011;11491;41.942;24.220;2023-04-15T08:50:13;9.98;;;7.50;;
22648;SDS011;11491;41.942;24.220;2023-04-15T08:53:04;6.43;;;2.47;;
22648;SDS011;11491;41.942;24.220;2023-04-15T08:55:32;6.03;;;3.75;;
22648;SDS011;11491;41.942;24.220;2023-04-15T08:58:03;6.22;;;5.68;;
22648;SDS011;11491;41.942;24.220;2023-04-15T09:00:31;2.95;;;1.20;;
22648;SDS011;11491;41.942;24.220;2023-04-15T09:02:58;3.35;;;1.80;;
22648;SDS011;11491;41.942;24.220;2023-04-15T09:05:26;4.45;;;2.30;;
22648;SDS011;11491;41.942;24.220;2023-04-15T09:07:56;3.25;;;1.90;;
22648;SDS011;11491;41.942;24.220;2023-04-15T09:10:25;3.47;;;2.08;;
22648;SDS011;11491;41.942;24.220;2023-04-15T09:12:54;4.53;;;1.50;;
22648;SDS011;11491;41.942;24.220;2023-04-15T09:15:25;3.42;;;1.00;;
22648;SDS011;11491;41.942;24.220;2023-04-15T09:49:18;10.65;;;8.43;;
22648;SDS011;11491;41.942;24.220;2023-04-15T09:51:47;10.18;;;6.35;;
22648;SDS011;11491;41.942;24.220;2023-04-15T09:54:43;4.97;;;2.03;;
22648;SDS011;11491;41.942;24.220;2023-04-15T10:00:18;7.35;;;4.75;;
22648;SDS011;11491;41.942;24.220;2023-04-15T10:03:10;9.98;;;6.78;;
22648;SDS011;11491;41.942;24.220;2023-04-15T10:27:00;4.50;;;3.10;;
22648;SDS011;11491;41.942;24.220;2023-04-15T10:29:29;22.95;;;14.27;;
22648;SDS011;11491;41.942;24.220;2023-04-15T10:31:57;6.60;;;2.83;;
22648;SDS011;11491;41.942;24.220;2023-04-15T10:34:25;6.20;;;3.65;;
22648;SDS011;11491;41.942;24.220;2023-04-15T10:36:54;40.28;;;11.60;;
22648;SDS011;11491;41.942;24.220;2023-04-15T10:39:37;5.05;;;1.90;;
22648;SDS011;11491;41.942;24.220;2023-04-15T10:47:55;7.70;;;4.90;;
22648;SDS011;11491;41.942;24.220;2023-04-15T10:50:24;9.38;;;5.93;;
22648;SDS011;11491;41.942;24.220;2023-04-15T10:52:51;1.80;;;1.30;;
22648;SDS011;11491;41.942;24.220;2023-04-15T10:55:19;2.97;;;2.15;;
22648;SDS011;11491;41.942;24.220;2023-04-15T10:57:50;4.22;;;1.08;;
22648;SDS011;11491;41.942;24.220;2023-04-15T11:06:20;3.97;;;1.58;;
22648;SDS011;11491;41.942;24.220;2023-04-15T11:09:30;1.40;;;0.80;;
22648;SDS011;11491;41.942;24.220;2023-04-15T11:23:12;6.57;;;4.80;;
22648;SDS011;11491;41.942;24.220;2023-04-15T11:25:40;4.30;;;2.30;;
22648;SDS011;11491;41.942;24.220;2023-04-15T11:28:06;4.35;;;3.38;;
22648;SDS011;11491;41.942;24.220;2023-04-15T11:30:34;1.38;;;0.75;;
22648;SDS011;11491;41.942;24.220;2023-04-15T11:33:02;2.40;;;1.00;;
22648;SDS011;11491;41.942;24.220;2023-04-15T11:35:31;2.60;;;1.55;;
22648;SDS011;11491;41.942;24.220;2023-04-15T11:38:01;8.40;;;5.53;;
22648;SDS011;11491;41.942;24.220;2023-04-15T11:40:30;2.13;;;1.10;;
22648;SDS011;11491;41.942;24.220;2023-04-15T11:43:03;4.70;;;1.10;;
22648;SDS011;11491;41.942;24.220;2023-04-15T11:45:30;2.33;;;1.38;;
22648;SDS011;11491;41.942;24.220;2023-04-15T11:48:03;1.92;;;0.90;;
22648;SDS011;11491;41.942;24.220;2023-04-15T11:50:34;2.70;;;0.80;;
22648;SDS011;11491;41.942;24.220;2023-04-15T11:53:01;2.80;;;0.90;;
22648;SDS011;11491;41.942;24.220;2023-04-15T11:55:32;2.08;;;0.73;;
22648;SDS011;11491;41.942;24.220;2023-04-15T11:58:08;49.90;;;31.52;;
22648;SDS011;11491;41.942;24.220;2023-04-15T12:00:36;3.08;;;0.98;;
22648;SDS011;11491;41.942;24.220;2023-04-15T12:03:16;4.47;;;3.28;;
22648;SDS011;11491;41.942;24.220;2023-04-15T12:11:44;2.28;;;1.10;;
22648;SDS011;11491;41.942;24.220;2023-04-15T12:14:18;2.67;;;1.40;;
22648;SDS011;11491;41.942;24.220;2023-04-15T12:16:51;5.63;;;4.07;;
22648;SDS011;11491;41.942;24.220;2023-04-15T12:19:24;4.40;;;2.20;;
22648;SDS011;11491;41.942;24.220;2023-04-15T12:22:16;3.33;;;1.38;;
22648;SDS011;11491;41.942;24.220;2023-04-15T12:50:00;8.88;;;5.43;;
22648;SDS011;11491;41.942;24.220;2023-04-15T12:52:28;5.07;;;2.40;;
22648;SDS011;11491;41.942;24.220;2023-04-15T12:54:55;3.90;;;1.60;;
22648;SDS011;11491;41.942;24.220;2023-04-15T12:57:23;7.68;;;5.45;;
22648;SDS011;11491;41.942;24.220;2023-04-15T12:59:52;3.28;;;1.77;;
22648;SDS011;11491;41.942;24.220;2023-04-15T13:02:20;5.38;;;1.80;;
22648;SDS011;11491;41.942;24.220;2023-04-15T13:04:49;1.98;;;0.90;;
22648;SDS011;11491;41.942;24.220;2023-04-15T13:07:17;11.57;;;9.98;;
22648;SDS011;11491;41.942;24.220;2023-04-15T13:09:45;5.68;;;5.10;;
22648;SDS011;11491;41.942;24.220;2023-04-15T13:12:12;2.58;;;1.33;;
22648;SDS011;11491;41.942;24.220;2023-04-15T13:14:39;6.63;;;3.25;;
22648;SDS011;11491;41.942;24.220;2023-04-15T13:17:06;4.38;;;1.45;;
22648;SDS011;11491;41.942;24.220;2023-04-15T13:19:34;7.95;;;5.57;;
22648;SDS011;11491;41.942;24.220;2023-04-15T13:22:01;5.82;;;3.15;;
22648;SDS011;11491;41.942;24.220;2023-04-15T13:24:29;7.70;;;3.92;;
22648;SDS011;11491;41.942;24.220;2023-04-15T13:26:56;3.40;;;2.13;;
22648;SDS011;11491;41.942;24.220;2023-04-15T13:29:23;18.27;;;3.25;;
22648;SDS011;11491;41.942;24.220;2023-04-15T13:31:50;3.00;;;0.95;;
22648;SDS011;11491;41.942;24.220;2023-04-15T13:34:16;8.85;;;4.88;;
22648;SDS011;11491;41.942;24.220;2023-04-15T13:36:43;7.60;;;4.10;;
22648;SDS011;11491;41.942;24.220;2023-04-15T13:39:10;8.57;;;5.45;;
22648;SDS011;11491;41.942;24.220;2023-04-15T13:41:44;10.60;;;8.10;;
22648;SDS011;11491;41.942;24.220;2023-04-15T13:44:12;9.15;;;4.25;;
22648;SDS011;11491;41.942;24.220;2023-04-15T13:46:53;9.40;;;6.22;;
22648;SDS011;11491;41.942;24.220;2023-04-15T13:49:20;12.52;;;11.23;;
22648;SDS011;11491;41.942;24.220;2023-04-15T13:51:47;7.20;;;5.95;;
22648;SDS011;11491;41.942;24.220;2023-04-15T13:54:17;2.97;;;1.60;;
22648;SDS011;11491;41.942;24.220;2023-04-15T13:59:52;4.10;;;1.80;;
22648;SDS011;11491;41.942;24.220;2023-04-15T14:02:21;6.97;;;2.00;;
22648;SDS011;11491;41.942;24.220;2023-04-15T14:04:50;4.20;;;2.20;;
22648;SDS011;11491;41.942;24.220;2023-04-15T14:07:19;4.38;;;1.60;;
22648;SDS011;11491;41.942;24.220;2023-04-15T14:12:25;3.50;;;1.30;;
22648;SDS011;11491;41.942;24.220;2023-04-15T14:14:53;4.93;;;2.40;;
22648;SDS011;11491;41.942;24.220;2023-04-15T14:17:54;10.55;;;5.22;;
22648;SDS011;11491;41.942;24.220;2023-04-15T14:20:23;9.55;;;4.47;;
22648;SDS011;11491;41.942;24.220;2023-04-15T14:23:05;8.52;;;5.63;;
22648;SDS011;11491;41.942;24.220;2023-04-15T14:36:06;16.40;;;14.13;;
22648;SDS011;11491;41.942;24.220;2023-04-15T14:38:34;6.85;;;5.18;;
22648;SDS011;11491;41.942;24.220;2023-04-15T14:41:04;3.45;;;2.00;;
22648;SDS011;11491;41.942;24.220;2023-04-15T14:43:32;4.40;;;2.72;;
22648;SDS011;11491;41.942;24.220;2023-04-15T14:46:01;4.65;;;2.22;;
22648;SDS011;11491;41.942;24.220;2023-04-15T14:48:32;6.43;;;5.25;;
22648;SDS011;11491;41.942;24.220;2023-04-15T14:51:01;11.00;;;9.88;;
22648;SDS011;11491;41.942;24.220;2023-04-15T14:53:29;4.05;;;2.85;;
22648;SDS011;11491;41.942;24.220;2023-04-15T14:55:55;7.65;;;5.13;;
22648;SDS011;11491;41.942;24.220;2023-04-15T14:58:22;4.70;;;3.03;;
22648;SDS011;11491;41.942;24.220;2023-04-15T15:00:50;8.30;;;3.30;;
22648;SDS011;11491;41.942;24.220;2023-04-15T15:03:18;5.72;;;2.00;;
22648;SDS011;11491;41.942;24.220;2023-04-15T15:05:45;7.82;;;3.15;;
22648;SDS011;11491;41.942;24.220;2023-04-15T15:08:18;7.35;;;2.70;;
22648;SDS011;11491;41.942;24.220;2023-04-15T15:10:47;8.38;;;3.28;;
22648;SDS011;11491;41.942;24.220;2023-04-15T15:13:20;5.25;;;3.15;;
22648;SDS011;11491;41.942;24.220;2023-04-15T15:15:46;4.15;;;3.03;;
22648;SDS011;11491;41.942;24.220;2023-04-15T15:18:28;4.97;;;1.75;;
22648;SDS011;11491;41.942;24.220;2023-04-15T15:46:24;13.30;;;9.88;;
22648;SDS011;11491;41.942;24.220;2023-04-15T15:48:56;10.55;;;5.80;;
22648;SDS011;11491;41.942;24.220;2023-04-15T15:52:01;16.65;;;12.25;;
22648;SDS011;11491;41.942;24.220;2023-04-15T15:57:17;21.38;;;10.95;;
22648;SDS011;11491;41.942;24.220;2023-04-15T16:00:20;25.88;;;18.52;;
22648;SDS011;11491;41.942;24.220;2023-04-15T16:02:48;14.15;;;9.32;;
22648;SDS011;11491;41.942;24.220;2023-04-15T16:05:16;9.20;;;6.45;;
22648;SDS011;11491;41.942;24.220;2023-04-15T16:07:58;11.50;;;8.27;;
22648;SDS011;11491;41.942;24.220;2023-04-15T16:10:31;12.73;;;8.80;;
22648;SDS011;11491;41.942;24.220;2023-04-15T16:13:00;48.80;;;29.17;;
22648;SDS011;11491;41.942;24.220;2023-04-15T16:21:03;49.45;;;24.50;;
22648;SDS011;11491;41.942;24.220;2023-04-15T16:23:30;49.67;;;37.15;;
22648;SDS011;11491;41.942;24.220;2023-04-15T16:25:58;30.75;;;20.90;;
22648;SDS011;11491;41.942;24.220;2023-04-15T16:28:25;11.27;;;7.63;;
22648;SDS011;11491;41.942;24.220;2023-04-15T16:30:52;6.32;;;3.95;;
22648;SDS011;11491;41.942;24.220;2023-04-15T16:33:26;16.85;;;11.05;;
22648;SDS011;11491;41.942;24.220;2023-04-15T16:36:07;32.38;;;23.00;;
22648;SDS011;11491;41.942;24.220;2023-04-15T16:38:44;26.27;;;19.30;;
22648;SDS011;11491;41.942;24.220;2023-04-15T16:41:13;16.52;;;13.95;;
22648;SDS011;11491;41.942;24.220;2023-04-15T16:43:41;22.23;;;15.52;;
22648;SDS011;11491;41.942;24.220;2023-04-15T16:46:13;22.13;;;16.60;;
22648;SDS011;11491;41.942;24.220;2023-04-15T17:06:56;18.63;;;10.55;;
22648;SDS011;11491;41.942;24.220;2023-04-15T17:09:28;5.93;;;3.63;;
22648;SDS011;11491;41.942;24.220;2023-04-15T17:12:31;23.65;;;19.55;;
22648;SDS011;11491;41.942;24.220;2023-04-15T17:15:08;38.45;;;31.02;;
22648;SDS011;11491;41.942;24.220;2023-04-15T17:17:35;13.35;;;9.57;;
22648;SDS011;11491;41.942;24.220;2023-04-15T17:20:09;24.83;;;22.15;;
22648;SDS011;11491;41.942;24.220;2023-04-15T17:22:51;33.90;;;26.92;;
22648;SDS011;11491;41.942;24.220;2023-04-15T17:25:20;40.00;;;31.10;;
22648;SDS011;11491;41.942;24.220;2023-04-15T17:27:48;13.77;;;10.20;;
22648;SDS011;11491;41.942;24.220;2023-04-15T17:30:30;13.00;;;8.77;;
22648;SDS011;11491;41.942;24.220;2023-04-15T17:32:57;11.95;;;7.38;;
22648;SDS011;11491;41.942;24.220;2023-04-15T17:35:26;35.03;;;27.02;;
22648;SDS011;11491;41.942;24.220;2023-04-15T17:37:54;45.13;;;30.88;;
22648;SDS011;11491;41.942;24.220;2023-04-15T17:40:26;41.50;;;23.08;;
22648;SDS011;11491;41.942;24.220;2023-04-15T17:42:53;91.88;;;53.97;;
22648;SDS011;11491;41.942;24.220;2023-04-15T17:45:20;51.25;;;30.67;;
22648;SDS011;11491;41.942;24.220;2023-04-15T17:47:51;47.55;;;29.58;;
22648;SDS011;11491;41.942;24.220;2023-04-15T17:50:19;38.83;;;26.80;;
22648;SDS011;11491;41.942;24.220;2023-04-15T17:53:05;55.67;;;37.05;;
22648;SDS011;11491;41.942;24.220;2023-04-15T17:55:40;36.63;;;24.95;;
22648;SDS011;11491;41.942;24.220;2023-04-15T17:58:08;44.25;;;31.35;;
22648;SDS011;11491;41.942;24.220;2023-04-15T18:00:34;38.95;;;28.95;;
22648;SDS011;11491;41.942;24.220;2023-04-15T18:03:01;38.25;;;29.05;;
22648;SDS011;11491;41.942;24.220;2023-04-15T18:05:28;32.67;;;23.73;;
22648;SDS011;11491;41.942;24.220;2023-04-15T18:07:55;24.25;;;16.45;;
22648;SDS011;11491;41.942;24.220;2023-04-15T18:10:23;31.55;;;23.90;;
22648;SDS011;11491;41.942;24.220;2023-04-15T18:12:50;35.92;;;24.65;;
22648;SDS011;11491;41.942;24.220;2023-04-15T18:15:16;28.75;;;20.33;;
22648;SDS011;11491;41.942;24.220;2023-04-15T18:17:44;34.22;;;24.80;;
22648;SDS011;11491;41.942;24.220;2023-04-15T18:20:10;43.53;;;30.77;;
22648;SDS011;11491;41.942;24.220;2023-04-15T18:22:38;40.38;;;29.38;;
22648;SDS011;11491;41.942;24.220;2023-04-15T18:25:05;49.25;;;35.65;;
22648;SDS011;11491;41.942;24.220;2023-04-15T18:27:34;64.25;;;44.88;;
22648;SDS011;11491;41.942;24.220;2023-04-15T18:30:04;45.22;;;31.95;;
22648;SDS011;11491;41.942;24.220;2023-04-15T18:32:32;58.75;;;42.58;;
22648;SDS011;11491;41.942;24.220;2023-04-15T18:34:59;50.67;;;36.20;;
22648;SDS011;11491;41.942;24.220;2023-04-15T18:37:26;68.63;;;46.97;;
22648;SDS011;11491;41.942;24.220;2023-04-15T18:39:55;76.28;;;51.50;;
22648;SDS011;11491;41.942;24.220;2023-04-15T18:42:22;48.08;;;34.90;;
22648;SDS011;11491;41.942;24.220;2023-04-15T18:44:51;60.88;;;44.33;;
22648;SDS011;11491;41.942;24.220;2023-04-15T18:47:18;71.57;;;48.28;;
22648;SDS011;11491;41.942;24.220;2023-04-15T18:49:45;62.58;;;44.22;;
22648;SDS011;11491;41.942;24.220;2023-04-15T18:52:12;53.00;;;40.25;;
22648;SDS011;11491;41.942;24.220;2023-04-15T18:54:38;67.20;;;46.15;;
22648;SDS011;11491;41.942;24.220;2023-04-15T18:57:05;64.18;;;41.35;;
22648;SDS011;11491;41.942;24.220;2023-04-15T18:59:32;60.22;;;41.53;;
22648;SDS011;11491;41.942;24.220;2023-04-15T19:02:01;49.60;;;34.95;;
22648;SDS011;11491;41.942;24.220;2023-04-15T19:04:30;51.17;;;35.22;;
22648;SDS011;11491;41.942;24.220;2023-04-15T19:06:57;55.13;;;40.60;;
22648;SDS011;11491;41.942;24.220;2023-04-15T19:09:24;72.03;;;44.88;;
22648;SDS011;11491;41.942;24.220;2023-04-15T19:11:50;71.68;;;49.25;;
22648;SDS011;11491;41.942;24.220;2023-04-15T19:14:17;80.68;;;54.90;;
22648;SDS011;11491;41.942;24.220;2023-04-15T19:16:44;75.15;;;48.30;;
22648;SDS011;11491;41.942;24.220;2023-04-15T19:19:12;124.05;;;77.50;;
22648;SDS011;11491;41.942;24.220;2023-04-15T19:21:39;148.18;;;91.80;;
22648;SDS011;11491;41.942;24.220;2023-04-15T19:24:06;157.63;;;99.78;;
22648;SDS011;11491;41.942;24.220;2023-04-15T19:26:32;142.27;;;86.88;;
22648;SDS011;11491;41.942;24.220;2023-04-15T19:29:00;127.60;;;80.10;;
22648;SDS011;11491;41.942;24.220;2023-04-15T19:31:27;124.22;;;78.82;;
22648;SDS011;11491;41.942;24.220;2023-04-15T19:33:54;168.73;;;109.03;;
22648;SDS011;11491;41.942;24.220;2023-04-15T19:36:22;190.43;;;115.72;;
22648;SDS011;11491;41.942;24.220;2023-04-15T19:38:49;132.65;;;80.05;;
22648;SDS011;11491;41.942;24.220;2023-04-15T19:41:16;99.85;;;58.88;;
22648;SDS011;11491;41.942;24.220;2023-04-15T19:43:42;83.78;;;50.08;;
22648;SDS011;11491;41.942;24.220;2023-04-15T19:46:09;121.15;;;76.72;;
22648;SDS011;11491;41.942;24.220;2023-04-15T19:48:37;143.75;;;86.30;;
22648;SDS011;11491;41.942;24.220;2023-04-15T19:51:04;119.57;;;75.60;;
22648;SDS011;11491;41.942;24.220;2023-04-15T19:53:32;119.18;;;78.18;;
22648;SDS011;11491;41.942;24.220;2023-04-15T19:55:59;114.00;;;73.47;;
22648;SDS011;11491;41.942;24.220;2023-04-15T19:58:26;113.15;;;71.38;;
22648;SDS011;11491;41.942;24.220;2023-04-15T20:00:53;95.18;;;60.28;;
22648;SDS011;11491;41.942;24.220;2023-04-15T20:03:19;78.63;;;52.50;;
22648;SDS011;11491;41.942;24.220;2023-04-15T20:05:46;66.97;;;43.42;;
22648;SDS011;11491;41.942;24.220;2023-04-15T20:08:13;98.60;;;62.70;;
22648;SDS011;11491;41.942;24.220;2023-04-15T20:10:41;78.70;;;51.35;;
22648;SDS011;11491;41.942;24.220;2023-04-15T20:13:08;63.92;;;42.40;;
22648;SDS011;11491;41.942;24.220;2023-04-15T20:15:35;50.85;;;31.27;;
22648;SDS011;11491;41.942;24.220;2023-04-15T20:18:02;66.00;;;42.95;;
22648;SDS011;11491;41.942;24.220;2023-04-15T20:20:28;63.22;;;43.47;;
22648;SDS011;11491;41.942;24.220;2023-04-15T20:22:55;58.17;;;41.50;;
22648;SDS011;11491;41.942;24.220;2023-04-15T20:25:22;61.33;;;42.20;;
22648;SDS011;11491;41.942;24.220;2023-04-15T20:27:50;67.97;;;46.33;;
22648;SDS011;11491;41.942;24.220;2023-04-15T20:30:17;85.85;;;56.63;;
22648;SDS011;11491;41.942;24.220;2023-04-15T20:32:44;85.13;;;52.92;;
22648;SDS011;11491;41.942;24.220;2023-04-15T20:35:10;113.45;;;64.85;;
22648;SDS011;11491;41.942;24.220;2023-04-15T20:37:37;146.98;;;108.22;;
22648;SDS011;11491;41.942;24.220;2023-04-15T20:40:05;114.47;;;77.20;;
22648;SDS011;11491;41.942;24.220;2023-04-15T20:42:33;92.47;;;60.55;;
22648;SDS011;11491;41.942;24.220;2023-04-15T20:45:01;99.68;;;65.75;;
22648;SDS011;11491;41.942;24.220;2023-04-15T20:47:28;115.53;;;71.32;;
22648;SDS011;11491;41.942;24.220;2023-04-15T20:49:55;107.95;;;69.07;;
22648;SDS011;11491;41.942;24.220;2023-04-15T20:52:22;79.20;;;48.22;;
22648;SDS011;11491;41.942;24.220;2023-04-15T20:54:49;64.75;;;44.13;;
22648;SDS011;11491;41.942;24.220;2023-04-15T20:57:16;40.72;;;30.27;;
22648;SDS011;11491;41.942;24.220;2023-04-15T20:59:44;47.28;;;29.52;;
22648;SDS011;11491;41.942;24.220;2023-04-15T21:02:12;45.08;;;28.95;;
22648;SDS011;11491;41.942;24.220;2023-04-15T21:04:39;63.67;;;39.60;;
22648;SDS011;11491;41.942;24.220;2023-04-15T21:07:05;76.82;;;49.08;;
22648;SDS011;11491;41.942;24.220;2023-04-15T21:09:32;87.20;;;53.88;;
22648;SDS011;11491;41.942;24.220;2023-04-15T21:11:59;95.35;;;57.35;;
22648;SDS011;11491;41.942;24.220;2023-04-15T21:14:26;61.47;;;39.40;;
22648;SDS011;11491;41.942;24.220;2023-04-15T21:16:52;58.20;;;36.80;;
22648;SDS011;11491;41.942;24.220;2023-04-15T21:19:20;73.60;;;48.25;;
22648;SDS011;11491;41.942;24.220;2023-04-15T21:21:47;46.70;;;28.48;;
22648;SDS011;11491;41.942;24.220;2023-04-15T21:24:14;60.78;;;35.80;;
22648;SDS011;11491;41.942;24.220;2023-04-15T21:26:42;68.18;;;37.70;;
22648;SDS011;11491;41.942;24.220;2023-04-15T21:29:08;88.90;;;51.42;;
22648;SDS011;11491;41.942;24.220;2023-04-15T21:31:35;81.90;;;49.45;;
22648;SDS011;11491;41.942;24.220;2023-04-15T21:34:03;64.05;;;38.28;;
22648;SDS011;11491;41.942;24.220;2023-04-15T21:36:32;46.22;;;26.17;;
22648;SDS011;11491;41.942;24.220;2023-04-15T21:38:58;153.85;;;87.85;;
22648;SDS011;11491;41.942;24.220;2023-04-15T21:44:10;71.38;;;43.63;;
22648;SDS011;11491;41.942;24.220;2023-04-15T21:46:37;53.60;;;33.33;;
22648;SDS011;11491;41.942;24.220;2023-04-15T21:49:04;64.65;;;38.80;;
22648;SDS011;11491;41.942;24.220;2023-04-15T21:51:33;35.42;;;22.88;;
22648;SDS011;11491;41.942;24.220;2023-04-15T21:53:59;43.50;;;27.98;;
22648;SDS011;11491;41.942;24.220;2023-04-15T21:56:26;47.17;;;30.23;;
22648;SDS011;11491;41.942;24.220;2023-04-15T21:58:54;74.63;;;38.00;;
22648;SDS011;11491;41.942;24.220;2023-04-15T22:01:22;59.97;;;35.45;;
22648;SDS011;11491;41.942;24.220;2023-04-15T22:03:49;54.15;;;32.33;;
22648;SDS011;11491;41.942;24.220;2023-04-15T22:06:16;57.90;;;35.40;;
22648;SDS011;11491;41.942;24.220;2023-04-15T22:08:44;53.22;;;33.70;;
22648;SDS011;11491;41.942;24.220;2023-04-15T22:11:16;47.70;;;30.25;;
22648;SDS011;11491;41.942;24.220;2023-04-15T22:13:47;55.80;;;34.90;;
22648;SDS011;11491;41.942;24.220;2023-04-15T22:16:13;61.95;;;38.58;;
22648;SDS011;11491;41.942;24.220;2023-04-15T22:18:59;54.67;;;36.17;;